Time,TemperatureF,DewpointF,PressureIn,WindDirection,WindDirectionDegrees,WindSpeedMPH,WindSpeedGustMPH,Humidity,HourlyPrecipIn,Conditions,Clouds,dailyrainin,SolarRadiationWatts/m^2,SoftwareType,DateUTC
2013-05-09 00:29:00,45.3,38.2,29.47,SW,224,18.0,33.0,76,0.00,,,0.00,0,Wunderground v.1.15,2013-05-08 23:29:00,
2013-05-09 00:59:00,45.0,37.9,29.46,SW,215,19.0,19.0,76,0.00,,,0.00,0,Wunderground v.1.15,2013-05-08 23:59:00,
2013-05-09 01:29:00,44.8,38.0,29.45,SSW,205,17.0,17.0,77,0.00,,,0.00,0,Wunderground v.1.15,2013-05-09 00:29:00,
2013-05-09 02:00:00,44.8,37.7,29.44,SSW,200,19.0,19.0,76,0.00,,,0.00,0,Wunderground v.1.15,2013-05-09 01:00:00,
2013-05-09 02:29:00,45.0,37.9,29.43,SSW,201,19.0,29.0,76,0.00,,,0.00,0,Wunderground v.1.15,2013-05-09 01:29:00,
2013-05-09 02:59:00,45.1,38.6,29.42,SSW,208,17.0,17.0,78,0.00,,,0.00,0,Wunderground v.1.15,2013-05-09 01:59:00,
2013-05-09 03:29:00,45.2,38.4,29.40,South,189,18.0,30.0,77,0.00,,,0.00,0,Wunderground v.1.15,2013-05-09 02:29:00,
2013-05-09 03:59:00,45.4,38.3,29.38,SW,217,22.0,22.0,76,0.00,,,0.01,0,Wunderground v.1.15,2013-05-09 02:59:00,
2013-05-09 04:29:00,45.3,38.5,29.36,SSW,202,20.0,20.0,77,0.00,,,0.01,0,Wunderground v.1.15,2013-05-09 03:29:00,
2013-05-09 04:59:00,45.6,38.8,29.34,SW,215,20.0,25.0,77,0.00,,,0.01,0,Wunderground v.1.15,2013-05-09 03:59:00,
2013-05-09 05:29:00,45.2,39.4,29.33,SSW,196,16.0,38.0,80,0.00,,,0.02,0,Wunderground v.1.15,2013-05-09 04:29:00,
2013-05-09 05:59:00,45.2,39.7,29.32,SW,217,17.0,17.0,81,0.00,,,0.03,0,Wunderground v.1.15,2013-05-09 04:59:00,
2013-05-09 06:29:00,45.0,40.5,29.30,SSW,194,17.0,36.0,84,0.06,,,0.05,7,Wunderground v.1.15,2013-05-09 05:29:00,
2013-05-09 06:59:00,45.7,40.5,29.28,SSW,211,16.0,16.0,82,0.00,,,0.06,58,Wunderground v.1.15,2013-05-09 05:59:00,
2013-05-09 07:29:00,46.5,40.7,29.26,South,188,19.0,37.0,80,0.00,,,0.06,40,Wunderground v.1.15,2013-05-09 06:29:00,
2013-05-09 07:59:00,46.4,41.2,29.25,SW,219,19.0,23.0,82,0.00,,,0.07,39,Wunderground v.1.15,2013-05-09 06:59:00,
2013-05-09 08:29:00,45.5,41.6,29.24,SSW,198,20.0,20.0,86,0.12,,,0.13,42,Wunderground v.1.15,2013-05-09 07:29:00,
2013-05-09 08:59:00,45.2,41.9,29.22,SSW,211,17.0,17.0,88,0.05,,,0.14,70,Wunderground v.1.15,2013-05-09 07:59:00,
2013-05-09 09:29:00,45.1,42.1,29.21,WSW,248,16.0,16.0,89,0.26,,,0.19,40,Wunderground v.1.15,2013-05-09 08:29:00,
2013-05-09 09:59:00,45.4,42.6,29.20,South,190,16.0,16.0,90,0.00,,,0.22,47,Wunderground v.1.15,2013-05-09 08:59:00,
2013-05-09 10:29:00,46.2,44.0,29.18,SSW,209,13.0,35.0,92,0.00,,,0.22,102,Wunderground v.1.15,2013-05-09 09:29:00,
2013-05-09 10:59:00,47.7,45.2,29.18,WSW,237,17.0,17.0,91,0.00,,,0.22,244,Wunderground v.1.15,2013-05-09 09:59:00,
2013-05-09 11:29:00,49.2,45.8,29.18,WSW,242,16.0,32.0,88,0.00,,,0.22,366,Wunderground v.1.15,2013-05-09 10:29:00,
2013-05-09 12:00:00,50.5,45.8,29.18,WSW,247,15.0,15.0,84,0.00,,,0.23,418,Wunderground v.1.15,2013-05-09 11:00:00,
2013-05-09 12:29:00,51.6,45.6,29.18,WSW,248,19.0,25.0,80,0.00,,,0.23,540,Wunderground v.1.15,2013-05-09 11:29:00,
2013-05-09 12:59:00,51.8,45.8,29.19,SW,235,17.0,20.0,80,0.00,,,0.23,276,Wunderground v.1.15,2013-05-09 11:59:00,
2013-05-09 13:29:00,50.7,46.4,29.19,SW,236,20.0,20.0,85,0.00,,,0.23,218,Wunderground v.1.15,2013-05-09 12:29:00,
2013-05-09 14:00:00,51.8,47.4,29.20,SW,234,18.0,18.0,85,0.00,,,0.24,299,Wunderground v.1.15,2013-05-09 13:00:00,
2013-05-09 14:29:00,51.3,46.3,29.20,WSW,250,19.0,30.0,83,0.00,,,0.25,464,Wunderground v.1.15,2013-05-09 13:29:00,
2013-05-09 14:59:00,52.1,45.8,29.20,WSW,245,22.0,26.0,79,0.00,,,0.25,142,Wunderground v.1.15,2013-05-09 13:59:00,
2013-05-09 15:29:00,48.6,45.5,29.22,WNW,294,20.0,30.0,89,0.08,,,0.31,279,Wunderground v.1.15,2013-05-09 14:29:00,
2013-05-09 15:59:00,48.6,46.1,29.24,WNW,292,18.0,23.0,91,0.00,,,0.33,144,Wunderground v.1.15,2013-05-09 14:59:00,
2013-05-09 16:29:00,47.2,44.7,29.26,West,269,17.0,17.0,91,0.11,,,0.37,167,Wunderground v.1.15,2013-05-09 15:29:00,
2013-05-09 16:59:00,47.5,45.0,29.27,WNW,290,18.0,21.0,91,0.00,,,0.38,304,Wunderground v.1.15,2013-05-09 15:59:00,
2013-05-09 17:29:00,47.6,44.8,29.28,West,279,16.0,40.0,90,0.00,,,0.38,227,Wunderground v.1.15,2013-05-09 16:29:00,
2013-05-09 17:59:00,49.5,46.4,29.30,WNW,293,17.0,20.0,89,0.00,,,0.38,281,Wunderground v.1.15,2013-05-09 16:59:00,
2013-05-09 18:29:00,49.1,44.2,29.32,NW,304,21.0,21.0,83,0.00,,,0.38,121,Wunderground v.1.15,2013-05-09 17:29:00,
2013-05-09 18:59:00,49.4,43.8,29.34,NW,308,21.0,26.0,81,0.00,,,0.38,95,Wunderground v.1.15,2013-05-09 17:59:00,
2013-05-09 19:29:00,49.0,43.7,29.37,WNW,300,18.0,30.0,82,0.00,,,0.38,33,Wunderground v.1.15,2013-05-09 18:29:00,
2013-05-09 20:00:00,48.1,43.8,29.39,WNW,284,18.0,19.0,85,0.00,,,0.38,21,Wunderground v.1.15,2013-05-09 19:00:00,
2013-05-09 20:29:00,48.0,43.7,29.41,NNW,338,19.0,35.0,85,0.00,,,0.38,5,Wunderground v.1.15,2013-05-09 19:29:00,
2013-05-09 20:59:00,47.6,43.9,29.44,WNW,298,18.0,19.0,87,0.00,,,0.38,0,Wunderground v.1.15,2013-05-09 19:59:00,
2013-05-09 21:29:00,47.1,43.4,29.47,NNW,339,15.0,15.0,87,0.00,,,0.38,0,Wunderground v.1.15,2013-05-09 20:29:00,
2013-05-09 21:59:00,47.4,43.1,29.49,NW,309,17.0,17.0,85,0.00,,,0.38,0,Wunderground v.1.15,2013-05-09 20:59:00,
2013-05-09 22:29:00,47.2,42.6,29.51,NNW,334,17.0,17.0,84,0.00,,,0.38,0,Wunderground v.1.15,2013-05-09 21:29:00,
2013-05-09 22:59:00,47.1,42.8,29.53,NW,313,13.0,20.0,85,0.00,,,0.38,0,Wunderground v.1.15,2013-05-09 21:59:00,
2013-05-09 23:29:00,46.9,42.9,29.55,WNW,295,11.0,31.0,86,0.00,,,0.38,0,Wunderground v.1.15,2013-05-09 22:29:00,
2013-05-09 23:59:00,46.7,43.0,29.56,WNW,294,11.0,11.0,87,0.00,,,0.38,0,Wunderground v.1.15,2013-05-09 22:59:00,